Portada
METAR-TAF:

METAR-TAF

Aeroports :

Aeroport Internacional de Moscou-Xeremètievo

Moscou-Sheremetyevo, Rússia

latitud: 55-58N, longitud: 037-25E, altitud: 190 m

Observació

L'informe es va fer fa 38 minuts, a les 01:00 UTC
Vent 4 kt del Sud/Sud-Oest
Temperatura 10°C
Humitat 82%
Pressió 1023 hPa
Visibilitat 10 km o més
sense núvols per sota de 1500 mi sense presència de cumulonimbus.

METAR: UUEE 280100Z 20002MPS CAVOK 10/07 Q1023 R24L/CLRD62 NOSIG

Hora: 04:38 (01:38 UTC)

Pronòstic

L'informe es va fer fa 2 hores i 41 minuts, a les 22:57 UTC
Pronòstic vàlid del 28 a les 00 UTC al 28 a les 24 UTC
Vent 6 kt del Sud/Sud-Oest
Visibilitat 10 km o més
Cel ennuvolat a una alçada de 3000 ft
Evolucionant progressivament
l' 28 a les 15 UTC al 28 a les 17 UTC
Vent 6 kt del Est

TAF: UUEE 272257Z 2800/2824 21003MPS 9999 BKN030 TX20/2812Z TN09/2802Z BECMG 2815/2817 09003MPS

Observacions i pronòstics meteorològics de més de 4000 aeroports (METAR i TAF).

Les estacions disponibles són els punts grocs i vermells al mapa.

Posi el ratolí al punt desitjat per veure el nom de l'estació.

Feu clic per veure les observacions i els pronòstics meteorològics.

Per canviar el mapa: feu clic els botons verds amb una creu de color negre per apropar; al botó verd amb un guió per allunyar la imatge; o en les fletxes verdes per a mapes adjacents.


METAR-TAF: